Time;durP1;ratioP1;P1;durP2;ratioP2;P2;SDS_P1;SDS_P2;PMS_P1;PMS_P2;Temp;Humidity;BMP_temperature;BMP_pressure;BME280_temperature;BME280_humidity;BME280_pressure;Samples;Min_cycle;Max_cycle;Signal;HPM_P1;HPM_P2
2021/12/12 00:02:32;;;;;;;;;;;21.80;40.60;;;;;;5129559;27;19919;-75
2021/12/12 00:04:59;;;;;;;;;;;21.90;40.60;;;;;;5128392;27;19908;-76
2021/12/12 00:07:27;;;;;;;;;;;22.00;40.60;;;;;;5097334;28;19981;-75
2021/12/12 00:09:57;;;;;;;;;;;22.00;40.60;;;;;;5130697;27;19966;-76
2021/12/12 00:12:29;;;;;;;;;;;22.10;40.60;;;;;;5097015;28;20344;-77
2021/12/12 00:14:54;;;;;;;;;;;22.20;40.70;;;;;;5097198;28;19915;-77
2021/12/12 00:17:21;;;;;;;;;;;22.20;40.60;;;;;;5096681;28;19961;-75
2021/12/12 00:19:49;;;;;;;;;;;22.30;40.70;;;;;;5112805;28;19916;-76
2021/12/12 00:22:16;;;;;;;;;;;22.30;40.60;;;;;;5097069;28;20244;-76
2021/12/12 00:24:46;;;;;;;;;;;22.30;40.60;;;;;;5096836;28;19919;-79
2021/12/12 00:27:14;;;;;;;;;;;22.40;40.70;;;;;;5112596;28;19908;-77
2021/12/12 00:29:42;;;;;;;;;;;22.40;40.60;;;;;;5129436;27;19908;-77
2021/12/12 00:32:09;;;;;;;;;;;22.40;40.60;;;;;;5095728;28;19908;-74
2021/12/12 00:34:36;;;;;;;;;;;22.40;40.60;;;;;;5096667;28;19923;-79
2021/12/12 00:37:07;;;;;;;;;;;22.50;40.60;;;;;;5129878;27;19934;-77
2021/12/12 00:39:33;;;;;;;;;;;22.50;40.60;;;;;;5094909;28;20003;-79
2021/12/12 00:42:00;;;;;;;;;;;22.50;40.60;;;;;;5096319;28;19995;-75
2021/12/12 00:44:30;;;;;;;;;;;22.50;40.70;;;;;;5109080;28;19907;-76
2021/12/12 00:47:02;;;;;;;;;;;22.60;40.70;;;;;;5095893;28;19908;-78
2021/12/12 00:49:30;;;;;;;;;;;22.60;40.80;;;;;;5079078;28;19908;-75
2021/12/12 00:51:56;;;;;;;;;;;22.60;40.90;;;;;;5097120;28;20003;-77
2021/12/12 00:54:21;;;;;;;;;;;22.60;40.90;;;;;;5099570;28;20139;-76
2021/12/12 00:56:47;;;;;;;;;;;22.70;41.00;;;;;;5104463;28;19908;-75
2021/12/12 00:59:13;;;;;;;;;;;22.70;41.00;;;;;;5102489;28;19916;-74
2021/12/12 01:01:44;;;;;;;;;;;22.70;41.10;;;;;;5104019;28;19927;-74
2021/12/12 01:04:13;;;;;;;;;;;22.70;41.10;;;;;;5103092;28;19908;-75
2021/12/12 01:06:38;;;;;;;;;;;22.70;41.10;;;;;;5103667;28;19908;-78
2021/12/12 01:09:05;;;;;;;;;;;22.70;41.10;;;;;;5104650;28;19912;-77
2021/12/12 01:11:34;;;;;;;;;;;22.80;41.20;;;;;;5104361;28;20341;-77
2021/12/12 01:14:00;;;;;;;;;;;22.80;41.20;;;;;;5103948;28;19912;-76
2021/12/12 01:16:28;;;;;;;;;;;22.80;41.20;;;;;;5103546;28;19908;-76
2021/12/12 01:19:00;;;;;;;;;;;22.80;41.20;;;;;;5102386;28;19918;-73
2021/12/12 01:21:29;;;;;;;;;;;22.80;41.20;;;;;;5101593;28;20244;-74
2021/12/12 01:23:59;;;;;;;;;;;22.80;41.20;;;;;;5099827;28;20318;-75
2021/12/12 01:26:27;;;;;;;;;;;22.80;41.20;;;;;;5099879;28;19912;-74
2021/12/12 01:28:54;;;;;;;;;;;22.80;41.10;;;;;;5084233;28;19908;-73
2021/12/12 01:31:24;;;;;;;;;;;22.90;41.10;;;;;;5078983;28;19908;-76
2021/12/12 01:33:58;;;;;;;;;;;22.90;41.10;;;;;;5096096;28;20458;-76
2021/12/12 01:36:28;;;;;;;;;;;22.80;41.00;;;;;;5095912;28;20397;-75
2021/12/12 01:38:56;;;;;;;;;;;22.90;41.00;;;;;;5095670;28;19953;-76
2021/12/12 01:41:30;;;;;;;;;;;22.90;41.00;;;;;;5094858;28;20359;-74
2021/12/12 01:44:01;;;;;;;;;;;22.90;41.00;;;;;;5094706;28;19915;-73
2021/12/12 01:46:29;;;;;;;;;;;22.90;41.00;;;;;;5094855;28;19916;-76
2021/12/12 01:48:56;;;;;;;;;;;22.90;40.90;;;;;;5094974;28;19912;-74
2021/12/12 01:51:24;;;;;;;;;;;22.90;40.90;;;;;;5095471;28;19961;-74
2021/12/12 01:53:52;;;;;;;;;;;22.90;40.90;;;;;;5095850;28;19908;-73
2021/12/12 01:56:18;;;;;;;;;;;22.90;40.90;;;;;;5094861;28;19989;-74
2021/12/12 01:58:45;;;;;;;;;;;22.90;40.90;;;;;;5094615;28;20506;-73
2021/12/12 02:01:11;;;;;;;;;;;22.90;40.80;;;;;;5094226;28;19927;-71
2021/12/12 02:03:42;;;;;;;;;;;22.90;40.80;;;;;;5094913;28;20404;-74
2021/12/12 02:06:08;;;;;;;;;;;22.90;40.80;;;;;;5094560;28;19989;-73
2021/12/12 02:08:36;;;;;;;;;;;22.90;40.80;;;;;;5095243;28;19908;-75
2021/12/12 02:11:04;;;;;;;;;;;22.90;40.80;;;;;;5094445;28;19934;-72
2021/12/12 02:13:30;;;;;;;;;;;22.90;40.80;;;;;;5094219;28;19908;-76
2021/12/12 02:15:56;;;;;;;;;;;22.90;40.80;;;;;;5094770;28;19908;-74
2021/12/12 02:18:28;;;;;;;;;;;22.90;40.70;;;;;;5094372;28;19908;-77
2021/12/12 02:21:16;;;;;;;;;;;23.00;40.70;;;;;;5094246;28;20256;-72
2021/12/12 02:35:14;;;;;;;;;;;22.90;41.30;;;;;;5094488;28;20290;-74
2021/12/12 02:37:43;;;;;;;;;;;22.90;40.70;;;;;;5094561;28;20014;-78
2021/12/12 02:40:11;;;;;;;;;;;23.00;40.70;;;;;;5095860;28;19924;-77
2021/12/12 02:42:36;;;;;;;;;;;23.00;40.70;;;;;;5094096;28;19915;-77
2021/12/12 02:45:02;;;;;;;;;;;22.90;40.60;;;;;;5094121;28;19912;-73
2021/12/12 02:47:36;;;;;;;;;;;23.00;40.60;;;;;;5093909;28;19908;-76
2021/12/12 02:50:11;;;;;;;;;;;22.90;40.60;;;;;;5077901;28;19908;-74
2021/12/12 02:52:37;;;;;;;;;;;23.00;40.60;;;;;;5095295;28;20309;-80
2021/12/12 02:55:08;;;;;;;;;;;23.00;40.60;;;;;;5077209;28;19955;-74
2021/12/12 02:57:34;;;;;;;;;;;23.00;40.60;;;;;;5093961;28;19919;-76
2021/12/12 02:59:59;;;;;;;;;;;23.00;40.60;;;;;;5094804;28;19923;-77
2021/12/12 03:02:27;;;;;;;;;;;23.00;40.50;;;;;;5095041;28;19916;-76
2021/12/12 03:04:54;;;;;;;;;;;23.00;40.50;;;;;;5098368;28;20007;-77
2021/12/12 03:07:22;;;;;;;;;;;23.00;40.50;;;;;;5080960;28;20003;-77
2021/12/12 03:09:52;;;;;;;;;;;23.00;40.50;;;;;;5098401;28;19915;-78
2021/12/12 03:12:19;;;;;;;;;;;23.00;40.50;;;;;;5081132;28;19908;-75
2021/12/12 03:14:47;;;;;;;;;;;23.00;40.50;;;;;;5080777;28;20010;-75
2021/12/12 03:17:15;;;;;;;;;;;23.00;40.50;;;;;;5098221;28;20248;-75
2021/12/12 03:19:40;;;;;;;;;;;23.00;40.50;;;;;;5098411;28;19909;-75
2021/12/12 03:22:06;;;;;;;;;;;23.00;40.50;;;;;;5080757;28;19919;-75
2021/12/12 03:24:32;;;;;;;;;;;23.00;40.40;;;;;;5080259;28;19955;-78
2021/12/12 03:27:01;;;;;;;;;;;23.00;40.40;;;;;;5080294;28;19961;-79
2021/12/12 03:29:29;;;;;;;;;;;23.00;40.40;;;;;;5080990;28;19916;-74
2021/12/12 03:31:57;;;;;;;;;;;23.00;40.40;;;;;;5098071;28;20491;-77
2021/12/12 03:34:23;;;;;;;;;;;23.00;40.40;;;;;;5114059;28;19908;-76
2021/12/12 03:36:49;;;;;;;;;;;23.00;40.40;;;;;;5080091;28;19931;-76
2021/12/12 03:39:16;;;;;;;;;;;23.00;40.40;;;;;;5080136;28;20271;-76
2021/12/12 03:41:42;;;;;;;;;;;23.00;40.30;;;;;;5097614;28;20018;-76
2021/12/12 03:44:11;;;;;;;;;;;23.00;40.30;;;;;;5097674;28;19962;-75
2021/12/12 03:46:39;;;;;;;;;;;23.00;40.30;;;;;;5097704;28;19908;-76
2021/12/12 03:49:07;;;;;;;;;;;23.00;40.30;;;;;;5080339;28;19908;-74
2021/12/12 03:51:32;;;;;;;;;;;23.00;40.30;;;;;;5079897;28;19960;-74
2021/12/12 03:54:00;;;;;;;;;;;23.00;40.30;;;;;;5097649;28;19943;-74
2021/12/12 03:56:26;;;;;;;;;;;23.00;40.30;;;;;;5113803;28;20241;-74
2021/12/12 03:58:51;;;;;;;;;;;23.00;40.20;;;;;;5079795;28;19908;-78
2021/12/12 04:01:25;;;;;;;;;;;23.00;40.20;;;;;;5079480;28;19965;-75
2021/12/12 04:03:51;;;;;;;;;;;23.00;40.20;;;;;;5079617;28;19908;-76
2021/12/12 04:06:20;;;;;;;;;;;23.10;40.30;;;;;;5097377;28;19908;-76
2021/12/12 04:08:48;;;;;;;;;;;23.10;40.30;;;;;;5062733;28;20351;-77
2021/12/12 04:11:20;;;;;;;;;;;23.10;40.30;;;;;;5097061;28;20050;-75
2021/12/12 04:13:48;;;;;;;;;;;23.10;40.20;;;;;;5096854;28;19987;-76
2021/12/12 04:16:16;;;;;;;;;;;23.10;40.20;;;;;;5096955;28;19999;-74
2021/12/12 04:18:41;;;;;;;;;;;23.10;40.20;;;;;;5079534;28;19974;-77
2021/12/12 04:21:07;;;;;;;;;;;23.00;40.10;;;;;;5079351;28;19966;-74
2021/12/12 04:23:33;;;;;;;;;;;23.00;40.10;;;;;;5079429;28;19919;-73
2021/12/12 04:26:08;;;;;;;;;;;23.10;40.20;;;;;;5096848;28;19958;-75
2021/12/12 04:28:37;;;;;;;;;;;23.00;40.10;;;;;;5079133;28;20014;-75
2021/12/12 04:31:02;;;;;;;;;;;23.10;40.20;;;;;;5096856;28;19908;-73
2021/12/12 04:33:30;;;;;;;;;;;23.10;40.10;;;;;;5079104;28;19961;-75
2021/12/12 04:35:56;;;;;;;;;;;23.10;40.10;;;;;;5096603;28;19908;-76
2021/12/12 04:38:22;;;;;;;;;;;23.10;40.10;;;;;;5079075;28;19965;-76
2021/12/12 04:40:48;;;;;;;;;;;23.10;40.10;;;;;;5062285;28;19939;-74
2021/12/12 04:43:13;;;;;;;;;;;23.00;40.60;;;;;;5096402;28;20352;-74
2021/12/12 04:45:43;;;;;;;;;;;23.10;40.10;;;;;;5062058;28;19908;-76
2021/12/12 04:50:59;;;;;;;;;;;23.10;40.10;;;;;;5096569;28;19919;-79
2021/12/12 04:53:29;;;;;;;;;;;23.00;40.00;;;;;;5078874;28;19923;-77
2021/12/12 04:55:55;;;;;;;;;;;23.10;40.10;;;;;;5078836;28;19911;-74
2021/12/12 04:58:23;;;;;;;;;;;23.10;40.10;;;;;;5096088;28;19908;-76
2021/12/12 05:00:50;;;;;;;;;;;23.10;40.10;;;;;;5095968;28;20314;-75
2021/12/12 05:03:19;;;;;;;;;;;23.10;40.00;;;;;;5112257;28;19923;-75
2021/12/12 05:05:50;;;;;;;;;;;23.10;40.00;;;;;;5096180;28;19912;-75
2021/12/12 05:08:21;;;;;;;;;;;23.10;40.00;;;;;;5096069;28;19915;-76
2021/12/12 05:10:49;;;;;;;;;;;23.10;40.00;;;;;;5061661;28;19979;-76
2021/12/12 05:13:16;;;;;;;;;;;23.10;40.00;;;;;;5096361;28;19912;-75
2021/12/12 05:15:46;;;;;;;;;;;23.10;40.00;;;;;;5061508;28;19909;-77
2021/12/12 05:18:27;;;;;;;;;;;23.10;40.00;;;;;;5061484;28;19951;-74
2021/12/12 05:21:03;;;;;;;;;;;23.10;40.00;;;;;;5078880;28;19923;-78
2021/12/12 05:23:29;;;;;;;;;;;23.10;40.00;;;;;;5095976;28;19909;-74
2021/12/12 05:25:56;;;;;;;;;;;23.10;40.00;;;;;;5077533;28;19918;-77
2021/12/12 05:28:23;;;;;;;;;;;23.10;40.00;;;;;;5078191;28;20253;-75
2021/12/12 05:30:48;;;;;;;;;;;23.10;39.90;;;;;;5061321;28;19915;-73
2021/12/12 05:33:14;;;;;;;;;;;23.10;39.90;;;;;;5077930;28;19908;-73
2021/12/12 05:35:42;;;;;;;;;;;23.10;39.90;;;;;;5095436;28;19935;-78
2021/12/12 05:38:07;;;;;;;;;;;23.10;39.90;;;;;;5078015;28;19916;-74
2021/12/12 05:40:33;;;;;;;;;;;23.10;39.90;;;;;;5095492;28;19985;-75
2021/12/12 05:43:00;;;;;;;;;;;23.10;39.90;;;;;;5077738;28;19984;-77
2021/12/12 05:45:26;;;;;;;;;;;23.10;40.50;;;;;;5077882;28;19934;-78
2021/12/12 05:47:54;;;;;;;;;;;23.10;39.90;;;;;;5077870;28;19961;-78
2021/12/12 05:50:19;;;;;;;;;;;23.10;39.80;;;;;;5095441;28;19908;-75
2021/12/12 05:52:45;;;;;;;;;;;23.10;39.80;;;;;;5077877;28;19912;-73
2021/12/12 05:55:11;;;;;;;;;;;23.10;39.80;;;;;;5095589;28;20011;-73
2021/12/12 05:57:36;;;;;;;;;;;23.10;39.80;;;;;;5078094;28;19918;-77
2021/12/12 06:00:04;;;;;;;;;;;23.10;39.80;;;;;;5084880;28;19931;-75
2021/12/12 06:02:32;;;;;;;;;;;23.10;39.80;;;;;;5095512;28;19908;-77
2021/12/12 06:05:00;;;;;;;;;;;23.10;39.80;;;;;;5094712;28;19907;-74
2021/12/12 06:07:25;;;;;;;;;;;23.10;39.80;;;;;;5095740;28;20245;-78
2021/12/12 06:09:53;;;;;;;;;;;23.10;39.80;;;;;;5094902;28;20395;-74
2021/12/12 06:12:21;;;;;;;;;;;23.10;39.70;;;;;;5094675;28;19908;-75
2021/12/12 06:14:47;;;;;;;;;;;23.10;39.70;;;;;;5078046;28;19918;-76
2021/12/12 06:17:15;;;;;;;;;;;23.10;39.80;;;;;;5094632;28;20319;-76
2021/12/12 06:19:41;;;;;;;;;;;23.10;39.70;;;;;;5094760;28;19979;-76
2021/12/12 06:22:07;;;;;;;;;;;23.20;39.70;;;;;;5094689;28;20003;-73
2021/12/12 06:24:32;;;;;;;;;;;23.10;39.70;;;;;;5095112;28;19912;-75
2021/12/12 06:27:05;;;;;;;;;;;23.10;39.70;;;;;;5094632;28;19919;-77
2021/12/12 06:29:30;;;;;;;;;;;23.10;39.70;;;;;;5094877;28;19908;-75
2021/12/12 06:31:58;;;;;;;;;;;23.10;39.70;;;;;;5095068;28;19919;-74
2021/12/12 06:34:23;;;;;;;;;;;23.20;39.70;;;;;;5095130;28;20249;-78
2021/12/12 06:36:49;;;;;;;;;;;23.20;39.70;;;;;;5094617;28;19908;-77
2021/12/12 06:39:15;;;;;;;;;;;23.10;39.60;;;;;;5098370;28;19922;-79
2021/12/12 06:41:42;;;;;;;;;;;23.10;39.70;;;;;;5098900;28;19923;-76
2021/12/12 06:44:09;;;;;;;;;;;23.20;39.70;;;;;;5081001;28;19962;-77
2021/12/12 06:46:40;;;;;;;;;;;23.10;39.70;;;;;;5081216;28;19908;-77
2021/12/12 06:49:06;;;;;;;;;;;23.10;39.60;;;;;;5098339;28;19925;-79
2021/12/12 06:51:34;;;;;;;;;;;23.10;39.60;;;;;;5099360;28;19909;-75
2021/12/12 06:54:02;;;;;;;;;;;23.20;39.70;;;;;;5099382;28;19908;-81
2021/12/12 06:56:32;;;;;;;;;;;23.20;39.70;;;;;;5081559;28;19912;-78
2021/12/12 06:58:58;;;;;;;;;;;23.20;39.70;;;;;;5097676;28;19908;-77
2021/12/12 07:01:25;;;;;;;;;;;23.20;39.60;;;;;;5080858;28;19961;-75
2021/12/12 07:03:51;;;;;;;;;;;23.10;39.60;;;;;;5098903;28;19990;-81
2021/12/12 07:06:20;;;;;;;;;;;23.20;39.60;;;;;;5098948;28;20352;-76
2021/12/12 07:08:45;;;;;;;;;;;23.20;39.60;;;;;;5081482;28;19912;-80
2021/12/12 07:11:13;;;;;;;;;;;23.10;39.60;;;;;;5098512;28;19908;-75
2021/12/12 07:13:41;;;;;;;;;;;23.20;39.60;;;;;;5080451;28;19969;-76
2021/12/12 07:16:09;;;;;;;;;;;23.20;39.60;;;;;;5064190;28;19908;-78
2021/12/12 07:18:34;;;;;;;;;;;23.20;39.60;;;;;;5098119;28;20280;-77
2021/12/12 07:21:01;;;;;;;;;;;23.10;36.40;;;;;;5080517;28;19920;-80
2021/12/12 07:23:27;;;;;;;;;;;17.80;36.50;;;;;;5063953;28;19940;-82
2021/12/12 07:25:53;;;;;;;;;;;14.90;41.90;;;;;;5081046;28;20288;-82
2021/12/12 07:28:18;;;;;;;;;;;12.20;47.20;;;;;;5079878;28;19908;-79
2021/12/12 07:30:44;;;;;;;;;;;11.90;49.70;;;;;;5112697;28;20291;-75
2021/12/12 07:33:12;;;;;;;;;;;14.10;48.50;;;;;;5063343;28;19908;-77
2021/12/12 07:35:38;;;;;;;;;;;16.10;45.30;;;;;;5080300;28;19991;-78
2021/12/12 07:38:12;;;;;;;;;;;17.50;42.50;;;;;;5080107;28;20329;-73
2021/12/12 07:40:41;;;;;;;;;;;18.60;40.70;;;;;;5080232;28;19933;-78
2021/12/12 07:43:06;;;;;;;;;;;19.40;39.50;;;;;;5080573;28;20294;-75
2021/12/12 07:45:34;;;;;;;;;;;20.00;38.60;;;;;;5080070;28;19912;-76
2021/12/12 07:48:00;;;;;;;;;;;20.40;38.30;;;;;;5113776;28;19962;-75
2021/12/12 07:50:28;;;;;;;;;;;20.70;38.00;;;;;;5062693;28;19908;-78
2021/12/12 07:52:54;;;;;;;;;;;20.90;37.80;;;;;;5113940;28;19916;-78
2021/12/12 07:55:19;;;;;;;;;;;21.20;37.80;;;;;;5079918;28;20079;-78
2021/12/12 07:57:45;;;;;;;;;;;21.30;37.60;;;;;;5079767;28;19912;-75
2021/12/12 08:00:15;;;;;;;;;;;21.50;37.60;;;;;;5099564;28;19924;-76
2021/12/12 08:02:40;;;;;;;;;;;21.70;38.20;;;;;;5117256;28;20297;-77
2021/12/12 08:05:06;;;;;;;;;;;21.90;37.60;;;;;;5116512;28;19919;-77
2021/12/12 08:07:34;;;;;;;;;;;22.00;37.60;;;;;;5099979;28;19907;-76
2021/12/12 08:10:02;;;;;;;;;;;22.10;37.50;;;;;;5100400;28;19908;-76
2021/12/12 08:12:30;;;;;;;;;;;22.20;37.60;;;;;;5117703;28;19918;-75
2021/12/12 08:14:56;;;;;;;;;;;22.30;37.90;;;;;;5100048;28;19918;-76
2021/12/12 08:17:21;;;;;;;;;;;22.40;38.00;;;;;;5116903;28;19908;-76
2021/12/12 08:19:50;;;;;;;;;;;22.50;38.70;;;;;;5116881;28;19908;-78
2021/12/12 08:22:15;;;;;;;;;;;22.60;38.10;;;;;;5116613;28;19972;-74
2021/12/12 08:24:46;;;;;;;;;;;22.70;39.10;;;;;;5116854;28;19912;-78
2021/12/12 08:27:16;;;;;;;;;;;22.70;47.00;;;;;;5116664;28;20065;-77
2021/12/12 08:29:42;;;;;;;;;;;22.80;48.40;;;;;;5116580;28;19908;-75
2021/12/12 08:32:08;;;;;;;;;;;22.90;49.00;;;;;;5116392;28;20060;-79
2021/12/12 08:34:36;;;;;;;;;;;23.00;49.00;;;;;;5117109;28;20359;-75
2021/12/12 08:37:04;;;;;;;;;;;23.00;49.40;;;;;;5116262;28;19934;-76
2021/12/12 08:39:30;;;;;;;;;;;23.10;48.50;;;;;;5116819;28;19947;-76
2021/12/12 08:41:56;;;;;;;;;;;23.10;48.20;;;;;;5116036;28;19962;-79
2021/12/12 08:44:22;;;;;;;;;;;23.20;48.60;;;;;;5099052;28;19908;-79
2021/12/12 08:46:50;;;;;;;;;;;23.20;47.70;;;;;;5116019;28;19908;-75
2021/12/12 08:49:18;;;;;;;;;;;23.30;47.60;;;;;;5116800;28;20002;-76
2021/12/12 08:51:48;;;;;;;;;;;23.20;47.10;;;;;;5116878;28;19918;-76
2021/12/12 08:54:15;;;;;;;;;;;23.30;47.00;;;;;;5116367;28;19907;-76
2021/12/12 08:56:47;;;;;;;;;;;23.30;47.00;;;;;;5115599;28;19965;-75
2021/12/12 08:59:23;;;;;;;;;;;23.40;47.10;;;;;;5116309;28;19916;-75
2021/12/12 09:01:51;;;;;;;;;;;23.40;46.30;;;;;;5114686;28;20244;-80
2021/12/12 09:04:21;;;;;;;;;;;23.40;45.80;;;;;;5115834;28;19907;-76
2021/12/12 09:06:50;;;;;;;;;;;23.40;45.20;;;;;;5115992;28;19948;-76
2021/12/12 09:09:17;;;;;;;;;;;23.50;44.80;;;;;;5116465;28;19911;-76
2021/12/12 09:11:44;;;;;;;;;;;23.50;44.80;;;;;;5115635;28;19919;-76
2021/12/12 09:14:30;;;;;;;;;;;23.60;44.50;;;;;;5116372;28;19908;-74
2021/12/12 09:16:56;;;;;;;;;;;23.60;44.40;;;;;;5116190;28;20395;-76
2021/12/12 09:19:25;;;;;;;;;;;23.60;44.40;;;;;;5116264;28;19907;-80
2021/12/12 09:22:09;;;;;;;;;;;23.60;44.10;;;;;;5115519;28;19912;-80
2021/12/12 09:24:44;;;;;;;;;;;23.60;44.00;;;;;;5115369;28;19911;-78
2021/12/12 09:27:26;;;;;;;;;;;23.70;43.70;;;;;;5116427;28;19912;-80
2021/12/12 09:29:55;;;;;;;;;;;23.70;43.50;;;;;;5098378;28;19908;-74
2021/12/12 09:32:23;;;;;;;;;;;23.70;43.30;;;;;;5115267;28;20264;-76
2021/12/12 09:34:53;;;;;;;;;;;23.70;43.10;;;;;;5116169;28;19908;-77
2021/12/12 09:37:59;;;;;;;;;;;23.70;43.00;;;;;;5115988;28;19989;-75
2021/12/12 09:40:25;;;;;;;;;;;23.70;42.90;;;;;;5073667;28;19916;-77
2021/12/12 09:42:57;;;;;;;;;;;23.80;42.90;;;;;;5073833;28;20398;-78
2021/12/12 09:45:31;;;;;;;;;;;23.70;42.90;;;;;;5073633;28;19952;-79
2021/12/12 09:48:15;;;;;;;;;;;23.70;42.90;;;;;;5056781;28;20047;-76
2021/12/12 09:54:00;;;;;;;;;;;23.70;42.90;;;;;;5073546;28;20311;-76
2021/12/12 09:56:33;;;;;;;;;;;23.70;42.90;;;;;;5066312;28;19955;-77
2021/12/12 09:59:00;;;;;;;;;;;23.70;42.90;;;;;;5039617;28;19909;-80
2021/12/12 10:01:46;;;;;;;;;;;23.70;42.90;;;;;;5056622;28;19936;-74
2021/12/12 10:04:17;;;;;;;;;;;23.70;42.90;;;;;;5072757;28;19952;-75
2021/12/12 10:06:49;;;;;;;;;;;23.70;43.00;;;;;;5056779;28;19912;-77
2021/12/12 10:09:21;;;;;;;;;;;23.70;42.90;;;;;;5073216;28;19909;-73
2021/12/12 10:11:55;;;;;;;;;;;23.60;43.00;;;;;;5105572;28;19972;-76
2021/12/12 10:14:36;;;;;;;;;;;23.60;43.10;;;;;;5114424;28;20352;-74
2021/12/12 10:17:03;;;;;;;;;;;23.60;43.10;;;;;;5114674;28;20348;-76
2021/12/12 10:19:36;;;;;;;;;;;23.50;43.10;;;;;;5115366;28;19919;-75
2021/12/12 10:22:01;;;;;;;;;;;23.60;43.30;;;;;;5115219;28;20003;-76
2021/12/12 10:24:29;;;;;;;;;;;23.50;43.30;;;;;;5115201;28;19958;-75
2021/12/12 10:27:13;;;;;;;;;;;23.50;43.30;;;;;;5115210;28;19908;-76
2021/12/12 10:29:57;;;;;;;;;;;23.50;43.60;;;;;;5114465;28;19907;-75
2021/12/12 10:32:26;;;;;;;;;;;23.40;43.70;;;;;;5115209;28;20030;-76
2021/12/12 10:34:55;;;;;;;;;;;23.40;43.90;;;;;;5114463;28;19915;-76
2021/12/12 10:37:28;;;;;;;;;;;23.40;44.00;;;;;;5097370;28;20240;-77
2021/12/12 10:39:56;;;;;;;;;;;23.40;44.10;;;;;;5114340;28;19968;-74
2021/12/12 10:42:25;;;;;;;;;;;23.30;44.80;;;;;;5114188;28;19912;-77
2021/12/12 10:44:56;;;;;;;;;;;23.40;44.80;;;;;;5097290;28;20076;-78
2021/12/12 10:47:24;;;;;;;;;;;23.40;45.70;;;;;;5114290;28;19908;-76
2021/12/12 10:50:05;;;;;;;;;;;23.30;45.30;;;;;;5115471;28;19941;-78
2021/12/12 10:52:40;;;;;;;;;;;23.40;45.40;;;;;;5114485;28;20320;-75
2021/12/12 10:55:13;;;;;;;;;;;23.40;45.60;;;;;;5114243;28;20415;-78
2021/12/12 10:57:38;;;;;;;;;;;23.30;46.20;;;;;;5114836;28;20002;-79
2021/12/12 11:00:20;;;;;;;;;;;23.40;46.20;;;;;;5096807;28;20457;-76
2021/12/12 11:02:47;;;;;;;;;;;23.40;46.30;;;;;;5113953;28;20388;-75
2021/12/12 11:05:19;;;;;;;;;;;23.30;46.50;;;;;;5114987;28;19908;-78
2021/12/12 11:07:46;;;;;;;;;;;23.30;46.60;;;;;;5114482;28;20462;-75
2021/12/12 11:10:17;;;;;;;;;;;23.30;46.70;;;;;;5097300;28;19914;-77
2021/12/12 11:12:44;;;;;;;;;;;23.30;46.90;;;;;;5106499;28;19908;-78
2021/12/12 11:15:13;;;;;;;;;;;23.30;47.00;;;;;;5099515;28;19908;-77
2021/12/12 11:17:43;;;;;;;;;;;23.30;46.80;;;;;;5100271;28;20015;-73
2021/12/12 11:20:19;;;;;;;;;;;23.30;47.20;;;;;;5103137;28;19907;-76
2021/12/12 11:22:57;;;;;;;;;;;23.30;47.40;;;;;;5114202;28;20264;-79
2021/12/12 11:25:31;;;;;;;;;;;23.30;47.40;;;;;;5116829;28;19947;-77
2021/12/12 11:27:58;;;;;;;;;;;23.30;47.50;;;;;;5117625;28;20014;-77
2021/12/12 11:30:33;;;;;;;;;;;23.30;47.70;;;;;;5117640;28;19908;-81
2021/12/12 11:32:59;;;;;;;;;;;23.30;48.20;;;;;;5116676;28;20321;-75
2021/12/12 11:35:25;;;;;;;;;;;23.30;48.10;;;;;;5116811;28;19908;-76
2021/12/12 11:37:50;;;;;;;;;;;23.20;47.90;;;;;;5100400;28;19957;-77
2021/12/12 11:40:32;;;;;;;;;;;23.20;48.00;;;;;;5118089;28;19951;-75
2021/12/12 11:43:01;;;;;;;;;;;23.20;47.80;;;;;;5117363;28;20332;-77
2021/12/12 11:45:29;;;;;;;;;;;23.30;47.40;;;;;;5118184;28;19907;-75
2021/12/12 11:48:02;;;;;;;;;;;23.30;47.10;;;;;;5118046;28;19908;-80
2021/12/12 11:50:41;;;;;;;;;;;23.30;47.00;;;;;;5117127;28;19908;-81
2021/12/12 11:53:17;;;;;;;;;;;23.30;46.80;;;;;;5117821;28;20259;-77
2021/12/12 11:55:44;;;;;;;;;;;23.30;46.80;;;;;;5117684;28;19961;-76
2021/12/12 11:58:29;;;;;;;;;;;23.30;46.70;;;;;;5117087;28;19919;-77
2021/12/12 12:00:58;;;;;;;;;;;23.30;46.60;;;;;;5116681;28;19926;-78
2021/12/12 12:03:27;;;;;;;;;;;23.30;46.60;;;;;;5116783;28;19963;-75
2021/12/12 12:06:12;;;;;;;;;;;23.30;46.40;;;;;;5116781;28;20353;-76
2021/12/12 12:08:37;;;;;;;;;;;23.30;46.40;;;;;;5117571;28;19918;-79
2021/12/12 12:11:21;;;;;;;;;;;23.20;46.20;;;;;;5117602;28;19998;-77
2021/12/12 12:13:53;;;;;;;;;;;23.30;46.20;;;;;;5117535;28;19947;-81
2021/12/12 12:16:33;;;;;;;;;;;23.20;46.20;;;;;;5116738;28;19915;-78
2021/12/12 12:19:08;;;;;;;;;;;23.20;46.10;;;;;;5116789;28;19947;-81
2021/12/12 12:21:34;;;;;;;;;;;23.20;46.10;;;;;;5116485;28;19923;-77
2021/12/12 12:24:20;;;;;;;;;;;23.20;46.00;;;;;;5117376;28;19907;-77
2021/12/12 12:26:52;;;;;;;;;;;23.20;46.00;;;;;;5117153;28;19908;-75
2021/12/12 12:29:26;;;;;;;;;;;23.20;46.00;;;;;;5117219;28;19998;-77
2021/12/12 12:32:04;;;;;;;;;;;23.20;45.90;;;;;;5117495;28;20240;-76
2021/12/12 12:34:39;;;;;;;;;;;23.10;45.80;;;;;;5117027;28;19923;-77
2021/12/12 12:37:23;;;;;;;;;;;23.20;45.80;;;;;;5116320;28;19973;-76
2021/12/12 12:40:07;;;;;;;;;;;23.10;45.70;;;;;;5117709;28;20328;-79
2021/12/12 12:42:51;;;;;;;;;;;23.10;45.70;;;;;;5116975;28;19958;-79
2021/12/12 12:45:38;;;;;;;;;;;23.10;45.60;;;;;;5117047;28;19907;-76
2021/12/12 12:48:12;;;;;;;;;;;23.10;45.60;;;;;;5117043;28;20328;-76
2021/12/12 12:50:41;;;;;;;;;;;23.10;45.60;;;;;;5117024;28;19931;-76
2021/12/12 12:53:18;;;;;;;;;;;23.10;45.50;;;;;;5116700;28;19908;-76
2021/12/12 12:56:04;;;;;;;;;;;23.10;45.40;;;;;;5115757;28;19936;-77
2021/12/12 12:58:38;;;;;;;;;;;23.10;45.40;;;;;;5115593;28;19907;-77
2021/12/12 13:01:26;;;;;;;;;;;23.10;45.40;;;;;;5098587;28;20280;-81
2021/12/12 13:03:54;;;;;;;;;;;23.10;45.30;;;;;;5096442;28;19908;-75
2021/12/12 13:06:42;;;;;;;;;;;23.10;45.30;;;;;;5115836;28;19939;-76
2021/12/12 13:09:15;;;;;;;;;;;23.10;45.20;;;;;;5109585;28;19908;-76
2021/12/12 13:11:45;;;;;;;;;;;23.10;45.20;;;;;;5115846;28;19907;-79
2021/12/12 13:14:18;;;;;;;;;;;23.10;45.10;;;;;;5098510;28;19935;-78
2021/12/12 13:16:44;;;;;;;;;;;23.10;45.10;;;;;;5115447;28;19979;-78
2021/12/12 13:19:11;;;;;;;;;;;23.10;45.10;;;;;;5116087;28;19907;-75
2021/12/12 13:21:46;;;;;;;;;;;23.10;45.10;;;;;;5116141;28;19911;-79
2021/12/12 13:24:24;;;;;;;;;;;23.10;45.00;;;;;;5116093;28;20037;-76
2021/12/12 13:27:23;;;;;;;;;;;23.10;45.60;;;;;;5115923;28;19912;-76
2021/12/12 13:30:04;;;;;;;;;;;23.10;45.00;;;;;;5115934;28;19908;-76
2021/12/12 13:32:45;;;;;;;;;;;23.10;45.00;;;;;;5116078;28;19995;-77
2021/12/12 13:35:19;;;;;;;;;;;23.10;44.90;;;;;;5115894;28;20002;-81
2021/12/12 13:37:50;;;;;;;;;;;23.10;44.90;;;;;;5114994;28;20064;-79
2021/12/12 13:40:24;;;;;;;;;;;23.10;44.90;;;;;;5115881;28;19911;-75
2021/12/12 13:42:58;;;;;;;;;;;23.10;44.80;;;;;;5115804;28;19907;-76
2021/12/12 13:45:37;;;;;;;;;;;23.10;44.80;;;;;;5114973;28;19908;-76
2021/12/12 13:48:24;;;;;;;;;;;23.10;44.80;;;;;;5114460;28;19907;-76
2021/12/12 13:51:08;;;;;;;;;;;23.10;44.70;;;;;;5115710;28;20336;-75
2021/12/12 13:53:34;;;;;;;;;;;23.10;44.70;;;;;;5115448;28;19919;-75
2021/12/12 13:56:05;;;;;;;;;;;23.10;44.60;;;;;;5114806;28;19930;-76
2021/12/12 13:58:40;;;;;;;;;;;23.10;44.60;;;;;;5114888;28;19908;-77
2021/12/12 14:01:06;;;;;;;;;;;23.10;44.50;;;;;;5114346;28;20290;-76
2021/12/12 14:03:37;;;;;;;;;;;23.10;44.50;;;;;;5115389;28;20003;-79
2021/12/12 14:06:05;;;;;;;;;;;23.10;44.50;;;;;;5115375;28;19908;-75
2021/12/12 14:08:32;;;;;;;;;;;23.10;44.40;;;;;;5114783;28;20332;-76
2021/12/12 14:11:04;;;;;;;;;;;23.10;44.40;;;;;;5114601;28;20023;-78
2021/12/12 14:13:34;;;;;;;;;;;23.10;44.30;;;;;;5098040;28;19908;-77
2021/12/12 14:16:09;;;;;;;;;;;23.10;44.30;;;;;;5114903;28;19926;-76
2021/12/12 14:18:37;;;;;;;;;;;23.10;44.20;;;;;;5114479;28;19965;-76
2021/12/12 14:21:02;;;;;;;;;;;23.10;44.20;;;;;;5115170;28;19912;-78
2021/12/12 14:23:31;;;;;;;;;;;23.10;44.20;;;;;;5114223;28;19919;-76
2021/12/12 14:26:03;;;;;;;;;;;23.10;44.10;;;;;;5114101;28;19985;-73
2021/12/12 14:28:28;;;;;;;;;;;23.10;44.10;;;;;;5114423;28;19950;-80
2021/12/12 14:30:54;;;;;;;;;;;23.10;44.00;;;;;;5115235;28;19907;-79
2021/12/12 14:33:31;;;;;;;;;;;23.10;44.00;;;;;;5115114;28;19908;-78
2021/12/12 14:36:03;;;;;;;;;;;23.20;44.10;;;;;;5114190;28;19962;-76
2021/12/12 14:38:29;;;;;;;;;;;23.20;44.00;;;;;;5097853;28;19908;-77
2021/12/12 14:40:58;;;;;;;;;;;23.10;44.00;;;;;;5114308;28;19912;-77
2021/12/12 14:43:24;;;;;;;;;;;23.10;44.00;;;;;;5114408;28;19908;-78
2021/12/12 14:45:50;;;;;;;;;;;23.10;43.90;;;;;;5114046;28;19919;-77
2021/12/12 14:48:25;;;;;;;;;;;23.10;43.90;;;;;;5114265;28;19911;-78
2021/12/12 14:50:54;;;;;;;;;;;23.10;43.90;;;;;;5115063;28;19941;-76